sensor_id;sensor_type;location;lat;lon;timestamp;temperature;humidity
21563;DHT22;10942;47.894;11.424;2023-04-23T00:01:55;14.00;99.90
21563;DHT22;10942;47.894;11.424;2023-04-23T00:04:24;14.00;99.90
21563;DHT22;10942;47.894;11.424;2023-04-23T00:06:51;14.00;99.90
21563;DHT22;10942;47.894;11.424;2023-04-23T00:09:17;13.80;99.90
21563;DHT22;10942;47.894;11.424;2023-04-23T00:11:43;13.70;99.90
21563;DHT22;10942;47.894;11.424;2023-04-23T00:14:10;13.70;99.90
21563;DHT22;10942;47.894;11.424;2023-04-23T00:16:37;13.60;99.90
21563;DHT22;10942;47.894;11.424;2023-04-23T00:19:03;13.60;99.90
21563;DHT22;10942;47.894;11.424;2023-04-23T00:21:29;13.50;99.90
21563;DHT22;10942;47.894;11.424;2023-04-23T00:23:55;13.30;99.90
21563;DHT22;10942;47.894;11.424;2023-04-23T00:28:47;13.20;99.90
21563;DHT22;10942;47.894;11.424;2023-04-23T00:31:13;13.30;99.90
21563;DHT22;10942;47.894;11.424;2023-04-23T00:33:39;13.30;99.90
21563;DHT22;10942;47.894;11.424;2023-04-23T00:36:05;13.30;99.90
21563;DHT22;10942;47.894;11.424;2023-04-23T00:38:31;13.30;99.90
21563;DHT22;10942;47.894;11.424;2023-04-23T00:40:57;13.30;99.90
21563;DHT22;10942;47.894;11.424;2023-04-23T00:43:23;13.40;99.90
21563;DHT22;10942;47.894;11.424;2023-04-23T00:45:48;13.40;99.90
21563;DHT22;10942;47.894;11.424;2023-04-23T00:48:15;13.50;99.90
21563;DHT22;10942;47.894;11.424;2023-04-23T00:50:41;13.50;99.90
21563;DHT22;10942;47.894;11.424;2023-04-23T00:53:07;13.50;99.90
21563;DHT22;10942;47.894;11.424;2023-04-23T00:55:33;13.40;99.90
21563;DHT22;10942;47.894;11.424;2023-04-23T00:58:00;13.40;99.90
21563;DHT22;10942;47.894;11.424;2023-04-23T01:00:26;13.40;99.90
21563;DHT22;10942;47.894;11.424;2023-04-23T01:02:52;13.40;99.90
21563;DHT22;10942;47.894;11.424;2023-04-23T01:05:19;13.30;99.90
21563;DHT22;10942;47.894;11.424;2023-04-23T01:07:46;13.30;99.90
21563;DHT22;10942;47.894;11.424;2023-04-23T01:10:13;13.30;99.90
21563;DHT22;10942;47.894;11.424;2023-04-23T01:12:38;13.30;99.90
21563;DHT22;10942;47.894;11.424;2023-04-23T01:15:05;13.30;99.90
21563;DHT22;10942;47.894;11.424;2023-04-23T01:17:32;13.30;99.90
21563;DHT22;10942;47.894;11.424;2023-04-23T01:19:58;13.30;99.90
21563;DHT22;10942;47.894;11.424;2023-04-23T01:22:24;13.30;99.90
21563;DHT22;10942;47.894;11.424;2023-04-23T01:24:50;13.30;99.90
21563;DHT22;10942;47.894;11.424;2023-04-23T01:27:16;13.20;99.90
21563;DHT22;10942;47.894;11.424;2023-04-23T01:29:45;13.20;99.90
21563;DHT22;10942;47.894;11.424;2023-04-23T01:32:11;13.20;99.90
21563;DHT22;10942;47.894;11.424;2023-04-23T01:34:37;13.20;99.90
21563;DHT22;10942;47.894;11.424;2023-04-23T01:37:04;13.20;99.90
21563;DHT22;10942;47.894;11.424;2023-04-23T01:39:30;13.20;99.90
21563;DHT22;10942;47.894;11.424;2023-04-23T01:41:55;13.10;99.90
21563;DHT22;10942;47.894;11.424;2023-04-23T01:44:22;13.10;99.90
21563;DHT22;10942;47.894;11.424;2023-04-23T01:46:47;13.10;99.90
21563;DHT22;10942;47.894;11.424;2023-04-23T01:49:13;13.10;99.90
21563;DHT22;10942;47.894;11.424;2023-04-23T01:51:39;13.10;99.90
21563;DHT22;10942;47.894;11.424;2023-04-23T01:54:05;13.10;99.90
21563;DHT22;10942;47.894;11.424;2023-04-23T01:56:30;13.00;99.90
21563;DHT22;10942;47.894;11.424;2023-04-23T01:58:58;13.00;99.90
21563;DHT22;10942;47.894;11.424;2023-04-23T02:01:24;13.00;99.90
21563;DHT22;10942;47.894;11.424;2023-04-23T02:25:45;13.00;99.90
21563;DHT22;10942;47.894;11.424;2023-04-23T02:28:11;12.80;99.90
21563;DHT22;10942;47.894;11.424;2023-04-23T02:30:40;12.80;99.90
21563;DHT22;10942;47.894;11.424;2023-04-23T02:33:11;12.80;99.90
21563;DHT22;10942;47.894;11.424;2023-04-23T02:35:36;12.90;99.90
21563;DHT22;10942;47.894;11.424;2023-04-23T02:38:02;12.90;99.90
21563;DHT22;10942;47.894;11.424;2023-04-23T02:40:28;12.80;99.90
21563;DHT22;10942;47.894;11.424;2023-04-23T02:42:53;12.80;99.90
21563;DHT22;10942;47.894;11.424;2023-04-23T02:45:20;12.80;99.90
21563;DHT22;10942;47.894;11.424;2023-04-23T02:47:49;12.80;99.90
21563;DHT22;10942;47.894;11.424;2023-04-23T02:50:15;12.80;99.90
21563;DHT22;10942;47.894;11.424;2023-04-23T02:52:41;12.90;99.90
21563;DHT22;10942;47.894;11.424;2023-04-23T02:55:07;12.90;99.90
21563;DHT22;10942;47.894;11.424;2023-04-23T02:57:34;12.90;99.90
21563;DHT22;10942;47.894;11.424;2023-04-23T03:00:00;12.70;99.90
21563;DHT22;10942;47.894;11.424;2023-04-23T03:02:33;12.80;99.90
21563;DHT22;10942;47.894;11.424;2023-04-23T03:04:59;12.70;99.90
21563;DHT22;10942;47.894;11.424;2023-04-23T03:07:25;12.70;99.90
21563;DHT22;10942;47.894;11.424;2023-04-23T03:09:50;12.60;99.90
21563;DHT22;10942;47.894;11.424;2023-04-23T03:12:16;12.50;99.90
21563;DHT22;10942;47.894;11.424;2023-04-23T03:17:09;12.50;99.90
21563;DHT22;10942;47.894;11.424;2023-04-23T03:19:35;12.50;99.90
21563;DHT22;10942;47.894;11.424;2023-04-23T03:22:02;12.60;99.90
21563;DHT22;10942;47.894;11.424;2023-04-23T03:24:33;12.60;99.90
21563;DHT22;10942;47.894;11.424;2023-04-23T03:26:59;12.60;99.90
21563;DHT22;10942;47.894;11.424;2023-04-23T03:29:25;12.60;99.90
21563;DHT22;10942;47.894;11.424;2023-04-23T03:31:51;12.60;99.90
21563;DHT22;10942;47.894;11.424;2023-04-23T03:34:17;12.60;99.90
21563;DHT22;10942;47.894;11.424;2023-04-23T03:36:43;12.50;99.90
21563;DHT22;10942;47.894;11.424;2023-04-23T03:39:11;12.50;99.90
21563;DHT22;10942;47.894;11.424;2023-04-23T03:41:48;12.40;99.90
21563;DHT22;10942;47.894;11.424;2023-04-23T03:49:10;12.20;99.90
21563;DHT22;10942;47.894;11.424;2023-04-23T03:51:36;12.10;99.90
21563;DHT22;10942;47.894;11.424;2023-04-23T03:54:02;12.10;99.90
21563;DHT22;10942;47.894;11.424;2023-04-23T03:56:37;12.10;99.90
21563;DHT22;10942;47.894;11.424;2023-04-23T03:59:11;12.20;99.90
21563;DHT22;10942;47.894;11.424;2023-04-23T04:01:37;12.20;99.90
21563;DHT22;10942;47.894;11.424;2023-04-23T04:04:03;12.20;99.90
21563;DHT22;10942;47.894;11.424;2023-04-23T04:06:31;12.30;99.90
21563;DHT22;10942;47.894;11.424;2023-04-23T04:08:57;12.30;99.90
21563;DHT22;10942;47.894;11.424;2023-04-23T04:11:23;12.30;99.90
21563;DHT22;10942;47.894;11.424;2023-04-23T04:13:48;12.30;99.90
21563;DHT22;10942;47.894;11.424;2023-04-23T04:16:14;12.30;99.90
21563;DHT22;10942;47.894;11.424;2023-04-23T04:18:40;12.30;99.90
21563;DHT22;10942;47.894;11.424;2023-04-23T04:21:06;12.30;99.90
21563;DHT22;10942;47.894;11.424;2023-04-23T04:23:32;12.30;99.90
21563;DHT22;10942;47.894;11.424;2023-04-23T04:25:59;12.30;99.90
21563;DHT22;10942;47.894;11.424;2023-04-23T04:28:25;12.40;99.90
21563;DHT22;10942;47.894;11.424;2023-04-23T04:30:54;12.40;99.90
21563;DHT22;10942;47.894;11.424;2023-04-23T04:33:22;12.30;99.90
21563;DHT22;10942;47.894;11.424;2023-04-23T04:35:47;12.20;99.90
21563;DHT22;10942;47.894;11.424;2023-04-23T04:38:14;12.10;99.90
21563;DHT22;10942;47.894;11.424;2023-04-23T04:40:40;12.10;99.90
21563;DHT22;10942;47.894;11.424;2023-04-23T04:43:06;12.10;99.90
21563;DHT22;10942;47.894;11.424;2023-04-23T04:45:32;12.10;99.90
21563;DHT22;10942;47.894;11.424;2023-04-23T04:47:57;11.90;99.90
21563;DHT22;10942;47.894;11.424;2023-04-23T04:50:23;12.00;99.90
21563;DHT22;10942;47.894;11.424;2023-04-23T04:52:49;12.10;99.90
21563;DHT22;10942;47.894;11.424;2023-04-23T04:55:15;12.00;99.90
21563;DHT22;10942;47.894;11.424;2023-04-23T04:57:40;11.90;99.90
21563;DHT22;10942;47.894;11.424;2023-04-23T05:02:48;12.00;99.90
21563;DHT22;10942;47.894;11.424;2023-04-23T05:05:14;12.10;99.90
21563;DHT22;10942;47.894;11.424;2023-04-23T05:07:40;12.10;99.90
21563;DHT22;10942;47.894;11.424;2023-04-23T05:10:06;12.20;99.90
21563;DHT22;10942;47.894;11.424;2023-04-23T05:12:32;12.10;99.90
21563;DHT22;10942;47.894;11.424;2023-04-23T05:14:57;12.00;99.90
21563;DHT22;10942;47.894;11.424;2023-04-23T05:17:23;11.90;99.90
21563;DHT22;10942;47.894;11.424;2023-04-23T05:19:48;12.00;99.90
21563;DHT22;10942;47.894;11.424;2023-04-23T05:22:14;12.10;99.90
21563;DHT22;10942;47.894;11.424;2023-04-23T05:24:41;12.20;99.90
21563;DHT22;10942;47.894;11.424;2023-04-23T05:27:07;12.10;99.90
21563;DHT22;10942;47.894;11.424;2023-04-23T05:29:33;12.20;99.90
21563;DHT22;10942;47.894;11.424;2023-04-23T05:31:58;12.30;99.90
21563;DHT22;10942;47.894;11.424;2023-04-23T05:34:24;12.30;99.90
21563;DHT22;10942;47.894;11.424;2023-04-23T05:36:50;12.20;99.90
21563;DHT22;10942;47.894;11.424;2023-04-23T05:39:15;12.20;99.90
21563;DHT22;10942;47.894;11.424;2023-04-23T05:41:41;12.20;99.90
21563;DHT22;10942;47.894;11.424;2023-04-23T05:44:07;12.30;99.90
21563;DHT22;10942;47.894;11.424;2023-04-23T05:46:32;12.20;99.90
21563;DHT22;10942;47.894;11.424;2023-04-23T05:48:58;12.20;99.90
21563;DHT22;10942;47.894;11.424;2023-04-23T05:51:23;12.20;99.90
21563;DHT22;10942;47.894;11.424;2023-04-23T05:53:49;12.10;99.90
21563;DHT22;10942;47.894;11.424;2023-04-23T05:56:15;12.10;99.90
21563;DHT22;10942;47.894;11.424;2023-04-23T05:58:41;12.00;99.90
21563;DHT22;10942;47.894;11.424;2023-04-23T06:01:06;12.00;99.90
21563;DHT22;10942;47.894;11.424;2023-04-23T06:03:33;12.10;99.90
21563;DHT22;10942;47.894;11.424;2023-04-23T06:05:59;12.10;99.90
21563;DHT22;10942;47.894;11.424;2023-04-23T06:08:24;12.20;99.90
21563;DHT22;10942;47.894;11.424;2023-04-23T06:10:50;12.20;99.90
21563;DHT22;10942;47.894;11.424;2023-04-23T06:13:16;12.30;99.90
21563;DHT22;10942;47.894;11.424;2023-04-23T06:15:41;12.40;99.90
21563;DHT22;10942;47.894;11.424;2023-04-23T06:18:07;12.40;99.90
21563;DHT22;10942;47.894;11.424;2023-04-23T06:20:34;12.40;99.90
21563;DHT22;10942;47.894;11.424;2023-04-23T06:23:00;12.30;99.90
21563;DHT22;10942;47.894;11.424;2023-04-23T06:25:27;12.40;99.90
21563;DHT22;10942;47.894;11.424;2023-04-23T06:27:53;12.40;99.90
21563;DHT22;10942;47.894;11.424;2023-04-23T06:30:23;12.20;99.90
21563;DHT22;10942;47.894;11.424;2023-04-23T09:00:10;12.00;99.90
21563;DHT22;10942;47.894;11.424;2023-04-23T09:02:40;14.00;99.90
21563;DHT22;10942;47.894;11.424;2023-04-23T09:05:06;14.00;99.90
21563;DHT22;10942;47.894;11.424;2023-04-23T09:07:33;14.00;99.90
21563;DHT22;10942;47.894;11.424;2023-04-23T09:10:04;14.10;99.90
21563;DHT22;10942;47.894;11.424;2023-04-23T09:12:31;14.10;99.90
21563;DHT22;10942;47.894;11.424;2023-04-23T09:14:57;14.10;99.90
21563;DHT22;10942;47.894;11.424;2023-04-23T09:17:27;14.20;99.90
21563;DHT22;10942;47.894;11.424;2023-04-23T09:19:54;14.30;99.90
21563;DHT22;10942;47.894;11.424;2023-04-23T09:22:45;14.50;99.90
21563;DHT22;10942;47.894;11.424;2023-04-23T10:04:37;14.20;99.90
21563;DHT22;10942;47.894;11.424;2023-04-23T10:07:04;15.10;99.90
21563;DHT22;10942;47.894;11.424;2023-04-23T10:09:33;15.40;99.90
21563;DHT22;10942;47.894;11.424;2023-04-23T10:12:01;15.40;99.90
21563;DHT22;10942;47.894;11.424;2023-04-23T10:14:27;15.60;99.90
21563;DHT22;10942;47.894;11.424;2023-04-23T10:16:57;16.10;99.90
21563;DHT22;10942;47.894;11.424;2023-04-23T10:19:24;16.40;99.90
21563;DHT22;10942;47.894;11.424;2023-04-23T10:22:00;16.70;99.90
21563;DHT22;10942;47.894;11.424;2023-04-23T10:24:35;16.80;99.90
21563;DHT22;10942;47.894;11.424;2023-04-23T10:27:04;16.90;99.90
21563;DHT22;10942;47.894;11.424;2023-04-23T10:29:34;16.90;99.90
21563;DHT22;10942;47.894;11.424;2023-04-23T10:32:02;17.40;99.90
21563;DHT22;10942;47.894;11.424;2023-04-23T10:34:29;17.20;99.90
21563;DHT22;10942;47.894;11.424;2023-04-23T10:36:57;17.60;99.90
21563;DHT22;10942;47.894;11.424;2023-04-23T10:39:26;17.40;99.90
21563;DHT22;10942;47.894;11.424;2023-04-23T10:41:53;17.00;99.90
21563;DHT22;10942;47.894;11.424;2023-04-23T10:44:20;17.30;99.90
21563;DHT22;10942;47.894;11.424;2023-04-23T10:46:57;17.50;99.90
21563;DHT22;10942;47.894;11.424;2023-04-23T10:49:24;17.10;99.90
21563;DHT22;10942;47.894;11.424;2023-04-23T10:52:22;16.80;99.90
21563;DHT22;10942;47.894;11.424;2023-04-23T10:54:48;16.30;99.90
21563;DHT22;10942;47.894;11.424;2023-04-23T10:57:15;16.40;99.90
21563;DHT22;10942;47.894;11.424;2023-04-23T10:59:51;16.50;99.90
21563;DHT22;10942;47.894;11.424;2023-04-23T11:02:18;16.60;99.90
21563;DHT22;10942;47.894;11.424;2023-04-23T11:04:45;16.40;99.90
21563;DHT22;10942;47.894;11.424;2023-04-23T11:07:12;16.30;99.90
21563;DHT22;10942;47.894;11.424;2023-04-23T11:09:42;16.70;99.90
21563;DHT22;10942;47.894;11.424;2023-04-23T11:12:33;17.10;99.90
21563;DHT22;10942;47.894;11.424;2023-04-23T11:15:14;17.10;99.90
21563;DHT22;10942;47.894;11.424;2023-04-23T11:20:17;17.40;99.90
21563;DHT22;10942;47.894;11.424;2023-04-23T11:27:41;17.40;99.90
21563;DHT22;10942;47.894;11.424;2023-04-23T11:30:18;17.50;99.90
21563;DHT22;10942;47.894;11.424;2023-04-23T11:32:45;17.30;99.90
21563;DHT22;10942;47.894;11.424;2023-04-23T11:35:18;17.40;99.90
21563;DHT22;10942;47.894;11.424;2023-04-23T11:37:45;17.40;99.90
21563;DHT22;10942;47.894;11.424;2023-04-23T11:40:14;17.40;99.90
21563;DHT22;10942;47.894;11.424;2023-04-23T11:42:45;17.50;99.90
21563;DHT22;10942;47.894;11.424;2023-04-23T11:45:18;17.50;99.90
21563;DHT22;10942;47.894;11.424;2023-04-23T11:47:46;17.60;99.90
21563;DHT22;10942;47.894;11.424;2023-04-23T11:50:18;17.70;99.90
21563;DHT22;10942;47.894;11.424;2023-04-23T11:52:44;17.70;99.90
21563;DHT22;10942;47.894;11.424;2023-04-23T11:55:10;17.60;99.90
21563;DHT22;10942;47.894;11.424;2023-04-23T11:57:44;17.40;99.90
21563;DHT22;10942;47.894;11.424;2023-04-23T12:00:18;17.10;99.90
21563;DHT22;10942;47.894;11.424;2023-04-23T12:02:55;17.00;99.90
21563;DHT22;10942;47.894;11.424;2023-04-23T12:05:33;16.80;99.90
21563;DHT22;10942;47.894;11.424;2023-04-23T12:10:52;16.80;99.90
21563;DHT22;10942;47.894;11.424;2023-04-23T12:13:21;16.60;99.90
21563;DHT22;10942;47.894;11.424;2023-04-23T12:15:48;16.60;99.90
21563;DHT22;10942;47.894;11.424;2023-04-23T12:18:15;16.50;99.90
21563;DHT22;10942;47.894;11.424;2023-04-23T12:20:42;16.60;99.90
21563;DHT22;10942;47.894;11.424;2023-04-23T12:23:08;16.60;99.90
21563;DHT22;10942;47.894;11.424;2023-04-23T12:25:39;16.60;99.90
21563;DHT22;10942;47.894;11.424;2023-04-23T12:28:06;16.60;99.90
21563;DHT22;10942;47.894;11.424;2023-04-23T12:30:34;16.60;99.90
21563;DHT22;10942;47.894;11.424;2023-04-23T12:33:10;16.40;99.90
21563;DHT22;10942;47.894;11.424;2023-04-23T12:35:42;16.50;99.90
21563;DHT22;10942;47.894;11.424;2023-04-23T12:38:24;16.60;99.90
21563;DHT22;10942;47.894;11.424;2023-04-23T12:40:59;16.50;99.90
21563;DHT22;10942;47.894;11.424;2023-04-23T12:43:26;16.40;99.90
21563;DHT22;10942;47.894;11.424;2023-04-23T12:45:53;16.50;99.90
21563;DHT22;10942;47.894;11.424;2023-04-23T12:48:19;16.70;99.90
21563;DHT22;10942;47.894;11.424;2023-04-23T12:50:45;16.90;99.90
21563;DHT22;10942;47.894;11.424;2023-04-23T12:53:12;17.00;99.90
21563;DHT22;10942;47.894;11.424;2023-04-23T12:55:38;17.00;99.90
21563;DHT22;10942;47.894;11.424;2023-04-23T12:58:06;17.20;99.90
21563;DHT22;10942;47.894;11.424;2023-04-23T13:00:32;17.10;99.90
21563;DHT22;10942;47.894;11.424;2023-04-23T13:02:57;17.00;99.90
21563;DHT22;10942;47.894;11.424;2023-04-23T13:05:23;17.10;99.90
21563;DHT22;10942;47.894;11.424;2023-04-23T13:07:49;17.10;99.90
21563;DHT22;10942;47.894;11.424;2023-04-23T13:10:15;17.20;99.90
21563;DHT22;10942;47.894;11.424;2023-04-23T13:12:41;17.10;99.90
21563;DHT22;10942;47.894;11.424;2023-04-23T13:15:07;17.20;99.90
21563;DHT22;10942;47.894;11.424;2023-04-23T13:17:35;17.00;99.90
21563;DHT22;10942;47.894;11.424;2023-04-23T13:20:01;16.70;99.90
21563;DHT22;10942;47.894;11.424;2023-04-23T13:22:26;16.60;99.90
21563;DHT22;10942;47.894;11.424;2023-04-23T13:24:56;16.60;99.90
21563;DHT22;10942;47.894;11.424;2023-04-23T13:27:23;16.70;99.90
21563;DHT22;10942;47.894;11.424;2023-04-23T13:29:49;16.80;99.90
21563;DHT22;10942;47.894;11.424;2023-04-23T13:32:15;17.00;99.90
21563;DHT22;10942;47.894;11.424;2023-04-23T13:34:41;17.00;99.90
21563;DHT22;10942;47.894;11.424;2023-04-23T13:37:07;17.00;99.90
21563;DHT22;10942;47.894;11.424;2023-04-23T13:39:37;16.80;99.90
21563;DHT22;10942;47.894;11.424;2023-04-23T13:42:03;16.80;99.90
21563;DHT22;10942;47.894;11.424;2023-04-23T13:44:32;16.70;99.90
21563;DHT22;10942;47.894;11.424;2023-04-23T13:46:57;16.80;99.90
21563;DHT22;10942;47.894;11.424;2023-04-23T13:49:24;16.80;99.90
21563;DHT22;10942;47.894;11.424;2023-04-23T13:51:50;16.80;99.90
21563;DHT22;10942;47.894;11.424;2023-04-23T13:54:19;16.80;99.90
21563;DHT22;10942;47.894;11.424;2023-04-23T13:56:45;16.80;99.90
21563;DHT22;10942;47.894;11.424;2023-04-23T13:59:11;16.90;99.90
21563;DHT22;10942;47.894;11.424;2023-04-23T14:01:37;17.00;99.90
21563;DHT22;10942;47.894;11.424;2023-04-23T14:04:03;16.80;99.90
21563;DHT22;10942;47.894;11.424;2023-04-23T14:06:32;16.70;99.90
21563;DHT22;10942;47.894;11.424;2023-04-23T14:08:57;16.40;99.90
21563;DHT22;10942;47.894;11.424;2023-04-23T14:11:23;16.40;99.90
21563;DHT22;10942;47.894;11.424;2023-04-23T14:13:49;16.50;99.90
21563;DHT22;10942;47.894;11.424;2023-04-23T14:16:15;16.40;99.90
21563;DHT22;10942;47.894;11.424;2023-04-23T14:19:20;16.50;99.90
21563;DHT22;10942;47.894;11.424;2023-04-23T14:21:45;16.40;99.90
21563;DHT22;10942;47.894;11.424;2023-04-23T14:24:17;16.40;99.90
21563;DHT22;10942;47.894;11.424;2023-04-23T14:26:46;16.40;99.90
21563;DHT22;10942;47.894;11.424;2023-04-23T14:31:44;16.40;99.90
21563;DHT22;10942;47.894;11.424;2023-04-23T14:34:10;16.30;99.90
21563;DHT22;10942;47.894;11.424;2023-04-23T14:36:36;16.20;99.90
21563;DHT22;10942;47.894;11.424;2023-04-23T14:39:01;16.20;99.90
21563;DHT22;10942;47.894;11.424;2023-04-23T14:41:33;16.30;99.90
21563;DHT22;10942;47.894;11.424;2023-04-23T14:44:00;16.20;99.90
21563;DHT22;10942;47.894;11.424;2023-04-23T14:46:26;16.20;99.90
21563;DHT22;10942;47.894;11.424;2023-04-23T14:48:52;16.10;99.90
21563;DHT22;10942;47.894;11.424;2023-04-23T14:51:17;16.00;99.90
21563;DHT22;10942;47.894;11.424;2023-04-23T14:53:43;16.00;99.90
21563;DHT22;10942;47.894;11.424;2023-04-23T14:56:09;16.00;99.90
21563;DHT22;10942;47.894;11.424;2023-04-23T14:58:35;15.70;99.90
21563;DHT22;10942;47.894;11.424;2023-04-23T15:01:01;15.50;99.90
21563;DHT22;10942;47.894;11.424;2023-04-23T15:05:53;15.50;99.90
21563;DHT22;10942;47.894;11.424;2023-04-23T15:08:19;15.50;99.90
21563;DHT22;10942;47.894;11.424;2023-04-23T15:10:45;15.50;99.90
21563;DHT22;10942;47.894;11.424;2023-04-23T15:16:01;15.60;99.90
21563;DHT22;10942;47.894;11.424;2023-04-23T15:18:28;15.60;99.90
21563;DHT22;10942;47.894;11.424;2023-04-23T15:20:54;15.70;99.90
21563;DHT22;10942;47.894;11.424;2023-04-23T15:23:19;15.90;99.90
21563;DHT22;10942;47.894;11.424;2023-04-23T15:25:50;15.80;99.90
21563;DHT22;10942;47.894;11.424;2023-04-23T15:28:16;15.70;99.90
21563;DHT22;10942;47.894;11.424;2023-04-23T15:30:42;15.80;99.90
21563;DHT22;10942;47.894;11.424;2023-04-23T15:33:09;15.80;99.90
21563;DHT22;10942;47.894;11.424;2023-04-23T15:35:35;15.70;99.90
21563;DHT22;10942;47.894;11.424;2023-04-23T15:38:01;15.90;99.90
21563;DHT22;10942;47.894;11.424;2023-04-23T15:40:27;15.90;99.90
21563;DHT22;10942;47.894;11.424;2023-04-23T15:42:54;15.90;99.90
21563;DHT22;10942;47.894;11.424;2023-04-23T15:45:20;16.00;99.90
21563;DHT22;10942;47.894;11.424;2023-04-23T15:47:46;16.10;99.90
21563;DHT22;10942;47.894;11.424;2023-04-23T15:50:12;16.10;99.90
21563;DHT22;10942;47.894;11.424;2023-04-23T15:52:38;16.10;99.90
21563;DHT22;10942;47.894;11.424;2023-04-23T15:55:06;16.10;99.90
21563;DHT22;10942;47.894;11.424;2023-04-23T15:57:32;16.20;99.90
21563;DHT22;10942;47.894;11.424;2023-04-23T15:59:57;16.10;99.90
21563;DHT22;10942;47.894;11.424;2023-04-23T16:02:23;16.10;99.90
21563;DHT22;10942;47.894;11.424;2023-04-23T16:04:49;16.20;99.90
21563;DHT22;10942;47.894;11.424;2023-04-23T16:07:15;16.10;99.90
21563;DHT22;10942;47.894;11.424;2023-04-23T16:09:41;16.00;99.90
21563;DHT22;10942;47.894;11.424;2023-04-23T16:12:07;16.00;99.90
21563;DHT22;10942;47.894;11.424;2023-04-23T16:14:32;15.90;99.90
21563;DHT22;10942;47.894;11.424;2023-04-23T16:16:58;15.90;99.90
21563;DHT22;10942;47.894;11.424;2023-04-23T16:19:24;15.90;99.90
21563;DHT22;10942;47.894;11.424;2023-04-23T16:21:49;15.90;99.90
21563;DHT22;10942;47.894;11.424;2023-04-23T16:24:15;15.90;99.90
21563;DHT22;10942;47.894;11.424;2023-04-23T16:26:42;15.90;99.90
21563;DHT22;10942;47.894;11.424;2023-04-23T16:29:08;15.90;99.90
21563;DHT22;10942;47.894;11.424;2023-04-23T16:31:33;15.90;99.90
21563;DHT22;10942;47.894;11.424;2023-04-23T16:34:00;15.80;99.90
21563;DHT22;10942;47.894;11.424;2023-04-23T16:36:25;15.80;99.90
21563;DHT22;10942;47.894;11.424;2023-04-23T16:38:52;15.70;99.90
21563;DHT22;10942;47.894;11.424;2023-04-23T16:41:18;15.50;99.90
21563;DHT22;10942;47.894;11.424;2023-04-23T16:43:45;15.40;99.90
21563;DHT22;10942;47.894;11.424;2023-04-23T16:46:12;15.40;99.90
21563;DHT22;10942;47.894;11.424;2023-04-23T16:48:41;15.40;99.90
21563;DHT22;10942;47.894;11.424;2023-04-23T16:51:07;15.30;99.90
21563;DHT22;10942;47.894;11.424;2023-04-23T16:53:33;15.20;99.90
21563;DHT22;10942;47.894;11.424;2023-04-23T16:55:59;15.10;99.90
21563;DHT22;10942;47.894;11.424;2023-04-23T16:58:24;15.20;99.90
21563;DHT22;10942;47.894;11.424;2023-04-23T17:00:50;15.20;99.90
21563;DHT22;10942;47.894;11.424;2023-04-23T17:03:16;15.10;99.90
21563;DHT22;10942;47.894;11.424;2023-04-23T17:05:42;15.10;99.90
21563;DHT22;10942;47.894;11.424;2023-04-23T17:08:08;15.10;99.90
21563;DHT22;10942;47.894;11.424;2023-04-23T17:10:34;15.10;99.90
21563;DHT22;10942;47.894;11.424;2023-04-23T17:13:00;15.00;99.90
21563;DHT22;10942;47.894;11.424;2023-04-23T17:15:26;15.00;99.90
21563;DHT22;10942;47.894;11.424;2023-04-23T17:17:52;14.90;99.90
21563;DHT22;10942;47.894;11.424;2023-04-23T17:20:18;14.90;99.90
21563;DHT22;10942;47.894;11.424;2023-04-23T17:22:43;14.90;99.90
21563;DHT22;10942;47.894;11.424;2023-04-23T17:25:09;14.90;99.90
21563;DHT22;10942;47.894;11.424;2023-04-23T17:27:35;15.00;99.90
21563;DHT22;10942;47.894;11.424;2023-04-23T17:30:01;15.00;99.90
21563;DHT22;10942;47.894;11.424;2023-04-23T17:32:26;15.00;99.90
21563;DHT22;10942;47.894;11.424;2023-04-23T17:34:52;15.00;99.90
21563;DHT22;10942;47.894;11.424;2023-04-23T17:37:18;15.00;99.90
21563;DHT22;10942;47.894;11.424;2023-04-23T17:39:43;15.00;99.90
21563;DHT22;10942;47.894;11.424;2023-04-23T17:42:09;15.00;99.90
21563;DHT22;10942;47.894;11.424;2023-04-23T17:51:56;15.10;99.90
21563;DHT22;10942;47.894;11.424;2023-04-23T17:54:23;14.70;99.90
21563;DHT22;10942;47.894;11.424;2023-04-23T17:56:49;14.70;99.90
21563;DHT22;10942;47.894;11.424;2023-04-23T17:59:15;14.60;99.90
21563;DHT22;10942;47.894;11.424;2023-04-23T18:01:42;14.40;99.90
21563;DHT22;10942;47.894;11.424;2023-04-23T18:04:07;14.20;99.90
21563;DHT22;10942;47.894;11.424;2023-04-23T18:06:33;14.20;99.90
21563;DHT22;10942;47.894;11.424;2023-04-23T18:09:00;14.20;99.90
21563;DHT22;10942;47.894;11.424;2023-04-23T18:11:26;14.20;99.90
21563;DHT22;10942;47.894;11.424;2023-04-23T18:13:51;14.20;99.90
21563;DHT22;10942;47.894;11.424;2023-04-23T18:16:18;14.30;99.90
21563;DHT22;10942;47.894;11.424;2023-04-23T18:18:44;14.30;99.90
21563;DHT22;10942;47.894;11.424;2023-04-23T18:21:09;14.20;99.90
21563;DHT22;10942;47.894;11.424;2023-04-23T18:23:38;14.30;99.90
21563;DHT22;10942;47.894;11.424;2023-04-23T18:26:04;14.30;99.90
21563;DHT22;10942;47.894;11.424;2023-04-23T18:28:30;14.30;99.90
21563;DHT22;10942;47.894;11.424;2023-04-23T18:30:57;14.30;99.90
21563;DHT22;10942;47.894;11.424;2023-04-23T18:33:30;14.30;99.90
21563;DHT22;10942;47.894;11.424;2023-04-23T18:36:04;14.30;99.90
21563;DHT22;10942;47.894;11.424;2023-04-23T18:38:35;14.20;99.90
21563;DHT22;10942;47.894;11.424;2023-04-23T18:41:02;14.20;99.90
21563;DHT22;10942;47.894;11.424;2023-04-23T18:43:29;14.10;99.90
21563;DHT22;10942;47.894;11.424;2023-04-23T18:45:59;14.00;99.90
21563;DHT22;10942;47.894;11.424;2023-04-23T18:51:13;13.70;99.90
21563;DHT22;10942;47.894;11.424;2023-04-23T18:53:39;13.50;99.90
21563;DHT22;10942;47.894;11.424;2023-04-23T18:56:05;13.30;99.90
21563;DHT22;10942;47.894;11.424;2023-04-23T19:13:07;12.50;99.90
21563;DHT22;10942;47.894;11.424;2023-04-23T19:15:33;12.50;99.90
21563;DHT22;10942;47.894;11.424;2023-04-23T19:18:00;12.50;99.90
21563;DHT22;10942;47.894;11.424;2023-04-23T19:20:27;12.50;99.90
21563;DHT22;10942;47.894;11.424;2023-04-23T19:22:55;12.40;99.90
21563;DHT22;10942;47.894;11.424;2023-04-23T19:25:20;12.40;99.90
21563;DHT22;10942;47.894;11.424;2023-04-23T19:27:46;12.30;99.90
21563;DHT22;10942;47.894;11.424;2023-04-23T19:30:12;12.30;99.90
21563;DHT22;10942;47.894;11.424;2023-04-23T19:35:04;12.20;99.90
21563;DHT22;10942;47.894;11.424;2023-04-23T19:37:30;11.90;99.90
21563;DHT22;10942;47.894;11.424;2023-04-23T19:39:57;11.90;99.90
21563;DHT22;10942;47.894;11.424;2023-04-23T19:42:23;12.00;99.90